Ojai, CA (93023)

1:42 PM PST on February 09, 2016 (GMT -0800)
S. Carillo Rd Ojai CA | | Change Station
CLOSE
Current Station
Personal Weather Station
Location: Ojai, CA
Elevation: 758 ft
Nearby Weather Stations

Elev 758 ft 34.44 °N, 119.27 °W | Updated 1 second ago

Clear
Clear
89.8 °F
Feels Like 86 °F
N
0.9
Wind Variable Wind from East
Gusts 2.5 mph

Today
High -- | Low -- °F
--% Chance of Precip.
Yesterday
High -- | Low -- °F
Precip. -- in
Pressure 30.08 in
Visibility 10.0 miles
Clouds Clear
Heat Index 86 °F
Dew Point 26 °F
Humidity 10%
Rainfall 0.00 in
Snow Depth Not available.
6:48 AM 5:34 PM
New Moon, 2% visible
METAR KOXR 092051Z 05010KT 10SM CLR 33/M03 A3008 RMK AO2 SLP185 T03281028 58026
Pressure 30.08 in
Visibility 10.0 miles
Clouds Clear
Heat Index 86 °F
Dew Point 26 °F
Humidity 10%
Rainfall 0.00 in
Snow Depth Not available.
6:48 AM 5:34 PM
New Moon, 2% visible
METAR KOXR 092051Z 05010KT 10SM CLR 33/M03 A3008 RMK AO2 SLP185 T03281028 58026

10-Day Weather Forecast

Almanac

Astronomy

Feb. 09, 2016 Rise Set
Actual Time
Civil Twilight
Nautical Twilight
Astronomical Twilight
Moon
Length of Visible Light
Length of Day
Tomorrow will be .
, % of the Moon is Illuminated

Today's Extremes

State Highs State Lows

Community

WunderPhotos

Upload Photos

1,891,710 photos uploaded!

WunderBlog® & News

Nearby

Air Quality

  Air Quality AQ Index Pollutant
Not available.

Snow Depth

Station Depth Elevation

Earthquake Activity

City Distance Mag. Time & Date
Minimum magnitude displayed is 2.5.

Coastal Water Temperatures

Place Temperature

Stations

Nearby Weather Stations

Station Location Temp. Windchill Dew Point Humidity Wind Precip. Elev Updated Type
                   

Watches & Warnings

There are currently no watches in effect.